Corsham, United Kingdom
Current Conditions -  °F | °C
As of 7:20 AM on Thursday 18 Dec 2014 (Local Time) from EGGD Reporting Station
Broken Clouds Broken Clouds  
Wind Chill: 50°   Ceiling: 300
Heat Index: 50°   Visibility: 6mi
Dew Point: 50°   Wind: 18mph
Humidity: 100%   Direction: 240°WSW
Pressure: 29.85"   Gusts: NA
Location:  51.43°N, 2.18°W
Report Text: EGGD 180720Z 24016KT 9999 SCT002 BKN003 10/10 Q1011
Loading
Personal Weather Stations






























Interactive Weather Map New forecast layout! Learn more

10-Day Weather Forecast

Advertisements
Track Severe Weather on mobile